sensor_id;sensor_type;location;lat;lon;timestamp;pressure;altitude;pressure_sealevel;temperature;humidity
40918;BME280;26644;50.248;19.032;2022-11-12T00:00:53;99647.44;;;7.60;78.44
40918;BME280;26644;50.248;19.032;2022-11-12T00:02:14;99655.66;;;7.60;78.69
40918;BME280;26644;50.248;19.032;2022-11-12T00:03:33;99650.63;;;7.57;78.49
40918;BME280;26644;50.248;19.032;2022-11-12T00:04:55;99657.53;;;7.60;78.18
40918;BME280;26644;50.248;19.032;2022-11-12T00:06:16;99658.59;;;7.59;78.01
40918;BME280;26644;50.248;19.032;2022-11-12T00:07:37;99659.44;;;7.59;78.04
40918;BME280;26644;50.248;19.032;2022-11-12T00:08:57;99661.31;;;7.59;78.25
40918;BME280;26644;50.248;19.032;2022-11-12T00:10:19;99657.75;;;7.58;77.98
40918;BME280;26644;50.248;19.032;2022-11-12T00:11:40;99667.88;;;7.58;78.36
40918;BME280;26644;50.248;19.032;2022-11-12T00:13:01;99665.13;;;7.58;78.26
40918;BME280;26644;50.248;19.032;2022-11-12T00:14:21;99665.13;;;7.58;78.64
40918;BME280;26644;50.248;19.032;2022-11-12T00:15:42;99662.59;;;7.56;78.09
40918;BME280;26644;50.248;19.032;2022-11-12T00:17:04;99668.53;;;7.53;78.03
40918;BME280;26644;50.248;19.032;2022-11-12T00:18:25;99665.81;;;7.53;77.82
40918;BME280;26644;50.248;19.032;2022-11-12T00:19:46;99665.00;;;7.53;77.97
40918;BME280;26644;50.248;19.032;2022-11-12T00:21:07;99666.28;;;7.50;77.90
40918;BME280;26644;50.248;19.032;2022-11-12T00:22:29;99663.16;;;7.47;77.54
40918;BME280;26644;50.248;19.032;2022-11-12T00:23:49;99661.34;;;7.40;78.03
40918;BME280;26644;50.248;19.032;2022-11-12T00:25:10;99663.31;;;7.33;77.87
40918;BME280;26644;50.248;19.032;2022-11-12T00:26:31;99658.16;;;7.25;77.67
40918;BME280;26644;50.248;19.032;2022-11-12T00:27:53;99658.00;;;7.20;77.97
40918;BME280;26644;50.248;19.032;2022-11-12T00:29:13;99666.88;;;7.15;78.03
40918;BME280;26644;50.248;19.032;2022-11-12T00:30:37;99660.44;;;7.09;78.04
40918;BME280;26644;50.248;19.032;2022-11-12T00:31:57;99653.09;;;7.03;78.00
40918;BME280;26644;50.248;19.032;2022-11-12T00:33:19;99659.03;;;7.00;78.64
40918;BME280;26644;50.248;19.032;2022-11-12T00:34:39;99660.53;;;6.96;78.93
40918;BME280;26644;50.248;19.032;2022-11-12T00:35:59;99658.03;;;6.94;78.97
40918;BME280;26644;50.248;19.032;2022-11-12T00:37:19;99656.34;;;6.93;79.66
40918;BME280;26644;50.248;19.032;2022-11-12T00:38:41;99651.13;;;6.92;79.38
40918;BME280;26644;50.248;19.032;2022-11-12T00:40:03;99652.81;;;6.93;79.55
40918;BME280;26644;50.248;19.032;2022-11-12T00:41:24;99650.91;;;6.93;79.74
40918;BME280;26644;50.248;19.032;2022-11-12T00:42:46;99656.34;;;6.93;80.16
40918;BME280;26644;50.248;19.032;2022-11-12T00:44:07;99652.56;;;6.94;79.83
40918;BME280;26644;50.248;19.032;2022-11-12T00:45:28;99652.34;;;6.96;79.62
40918;BME280;26644;50.248;19.032;2022-11-12T00:46:48;99645.81;;;6.97;80.10
40918;BME280;26644;50.248;19.032;2022-11-12T00:48:09;99645.38;;;7.00;79.81
40918;BME280;26644;50.248;19.032;2022-11-12T00:49:30;99646.00;;;7.02;79.94
40918;BME280;26644;50.248;19.032;2022-11-12T00:50:50;99648.06;;;7.07;80.24
40918;BME280;26644;50.248;19.032;2022-11-12T00:52:11;99646.78;;;7.09;79.76
40918;BME280;26644;50.248;19.032;2022-11-12T00:53:32;99642.75;;;7.12;79.55
40918;BME280;26644;50.248;19.032;2022-11-12T00:54:52;99642.28;;;7.15;79.32
40918;BME280;26644;50.248;19.032;2022-11-12T00:56:14;99647.53;;;7.17;78.99
40918;BME280;26644;50.248;19.032;2022-11-12T00:57:34;99657.16;;;7.19;79.23
40918;BME280;26644;50.248;19.032;2022-11-12T00:58:56;99652.94;;;7.23;79.29
40918;BME280;26644;50.248;19.032;2022-11-12T01:00:19;99651.84;;;7.24;78.77
40918;BME280;26644;50.248;19.032;2022-11-12T01:01:39;99643.22;;;7.27;78.67
40918;BME280;26644;50.248;19.032;2022-11-12T01:03:00;99646.53;;;7.30;79.07
40918;BME280;26644;50.248;19.032;2022-11-12T01:04:20;99641.06;;;7.30;78.48
40918;BME280;26644;50.248;19.032;2022-11-12T01:05:42;99646.69;;;7.35;78.80
40918;BME280;26644;50.248;19.032;2022-11-12T01:07:02;99642.28;;;7.34;78.64
40918;BME280;26644;50.248;19.032;2022-11-12T01:08:23;99648.13;;;7.37;78.50
40918;BME280;26644;50.248;19.032;2022-11-12T01:09:43;99652.53;;;7.38;78.53
40918;BME280;26644;50.248;19.032;2022-11-12T01:11:07;99649.56;;;7.40;78.75
40918;BME280;26644;50.248;19.032;2022-11-12T01:12:29;99646.84;;;7.40;78.12
40918;BME280;26644;50.248;19.032;2022-11-12T01:13:54;99644.13;;;7.40;78.21
40918;BME280;26644;50.248;19.032;2022-11-12T01:15:16;99640.31;;;7.41;78.28
40918;BME280;26644;50.248;19.032;2022-11-12T01:16:39;99633.66;;;7.37;78.34
40918;BME280;26644;50.248;19.032;2022-11-12T01:17:59;99651.03;;;7.42;78.11
40918;BME280;26644;50.248;19.032;2022-11-12T01:19:19;99649.09;;;7.43;78.33
40918;BME280;26644;50.248;19.032;2022-11-12T01:20:39;99645.31;;;7.44;77.89
40918;BME280;26644;50.248;19.032;2022-11-12T01:22:01;99647.00;;;7.45;78.01
40918;BME280;26644;50.248;19.032;2022-11-12T01:23:20;99654.13;;;7.46;78.22
40918;BME280;26644;50.248;19.032;2022-11-12T01:24:41;99652.22;;;7.47;77.99
40918;BME280;26644;50.248;19.032;2022-11-12T01:26:03;99647.38;;;7.49;77.99
40918;BME280;26644;50.248;19.032;2022-11-12T01:27:25;99649.88;;;7.50;77.72
40918;BME280;26644;50.248;19.032;2022-11-12T01:28:46;99646.91;;;7.52;77.79
40918;BME280;26644;50.248;19.032;2022-11-12T01:30:09;99643.34;;;7.51;77.51
40918;BME280;26644;50.248;19.032;2022-11-12T01:31:32;99646.91;;;7.52;77.44
40918;BME280;26644;50.248;19.032;2022-11-12T01:32:55;99646.91;;;7.52;77.92
40918;BME280;26644;50.248;19.032;2022-11-12T01:34:16;99642.75;;;7.49;77.67
40918;BME280;26644;50.248;19.032;2022-11-12T01:35:37;99648.19;;;7.49;78.06
40918;BME280;26644;50.248;19.032;2022-11-12T01:36:57;99638.31;;;7.48;77.50
40918;BME280;26644;50.248;19.032;2022-11-12T01:38:18;99645.69;;;7.48;77.69
40918;BME280;26644;50.248;19.032;2022-11-12T01:39:37;99642.34;;;7.45;77.61
40918;BME280;26644;50.248;19.032;2022-11-12T01:40:58;99646.16;;;7.44;78.02
40918;BME280;26644;50.248;19.032;2022-11-12T01:42:18;99654.34;;;7.44;77.54
40918;BME280;26644;50.248;19.032;2022-11-12T01:43:40;99637.22;;;7.37;77.78
40918;BME280;26644;50.248;19.032;2022-11-12T01:45:00;99659.81;;;7.44;77.90
40918;BME280;26644;50.248;19.032;2022-11-12T01:46:26;99654.34;;;7.44;78.23
40918;BME280;26644;50.248;19.032;2022-11-12T01:47:51;99646.38;;;7.43;78.00
40918;BME280;26644;50.248;19.032;2022-11-12T01:49:16;99649.97;;;7.43;78.01
40918;BME280;26644;50.248;19.032;2022-11-12T01:50:40;99653.53;;;7.44;77.80
40918;BME280;26644;50.248;19.032;2022-11-12T01:52:09;99644.59;;;7.37;78.01
40918;BME280;26644;50.248;19.032;2022-11-12T01:53:39;99657.31;;;7.43;77.75
40918;BME280;26644;50.248;19.032;2022-11-12T01:55:06;99648.28;;;7.42;77.86
40918;BME280;26644;50.248;19.032;2022-11-12T01:56:30;99653.75;;;7.42;78.24
40918;BME280;26644;50.248;19.032;2022-11-12T01:57:54;99653.75;;;7.42;77.88
40918;BME280;26644;50.248;19.032;2022-11-12T01:59:24;99654.81;;;7.41;77.88
40918;BME280;26644;50.248;19.032;2022-11-12T02:00:48;99651.25;;;7.41;78.02
40918;BME280;26644;50.248;19.032;2022-11-12T02:02:10;99658.84;;;7.39;77.75
40918;BME280;26644;50.248;19.032;2022-11-12T02:03:32;99648.97;;;7.38;77.90
40918;BME280;26644;50.248;19.032;2022-11-12T02:04:54;99651.09;;;7.36;77.85
40918;BME280;26644;50.248;19.032;2022-11-12T02:06:16;99648.59;;;7.34;78.00
40918;BME280;26644;50.248;19.032;2022-11-12T02:07:40;99648.22;;;7.31;78.15
40918;BME280;26644;50.248;19.032;2022-11-12T02:09:02;99650.94;;;7.31;78.64
40918;BME280;26644;50.248;19.032;2022-11-12T02:10:22;99647.41;;;7.30;78.41
40918;BME280;26644;50.248;19.032;2022-11-12T02:11:44;99642.38;;;7.27;78.72
40918;BME280;26644;50.248;19.032;2022-11-12T02:13:05;99649.75;;;7.26;78.71
40918;BME280;26644;50.248;19.032;2022-11-12T02:14:45;99637.97;;;7.26;78.75
40918;BME280;26644;50.248;19.032;2022-11-12T02:16:06;99651.63;;;7.26;78.65
40918;BME280;26644;50.248;19.032;2022-11-12T02:17:28;99641.63;;;7.20;78.67
40918;BME280;26644;50.248;19.032;2022-11-12T02:18:50;99652.69;;;7.25;78.38
40918;BME280;26644;50.248;19.032;2022-11-12T02:20:13;99649.97;;;7.25;78.74
40918;BME280;26644;50.248;19.032;2022-11-12T02:21:35;99652.69;;;7.25;78.80
40918;BME280;26644;50.248;19.032;2022-11-12T02:22:56;99649.13;;;7.24;78.51
40918;BME280;26644;50.248;19.032;2022-11-12T02:24:34;99646.38;;;7.24;78.58
40918;BME280;26644;50.248;19.032;2022-11-12T02:25:56;99647.66;;;7.22;78.69
40918;BME280;26644;50.248;19.032;2022-11-12T02:27:17;99651.25;;;7.22;78.50
40918;BME280;26644;50.248;19.032;2022-11-12T02:28:39;99649.34;;;7.23;78.74
40918;BME280;26644;50.248;19.032;2022-11-12T02:29:59;99649.34;;;7.23;78.82
40918;BME280;26644;50.248;19.032;2022-11-12T02:31:20;99647.66;;;7.22;78.77
40918;BME280;26644;50.248;19.032;2022-11-12T02:32:39;99642.44;;;7.20;78.93
40918;BME280;26644;50.248;19.032;2022-11-12T02:34:01;99642.91;;;7.17;78.91
40918;BME280;26644;50.248;19.032;2022-11-12T02:35:23;99648.97;;;7.19;78.89
40918;BME280;26644;50.248;19.032;2022-11-12T02:36:44;99651.09;;;7.17;78.61
40918;BME280;26644;50.248;19.032;2022-11-12T02:38:07;99650.25;;;7.17;78.78
40918;BME280;26644;50.248;19.032;2022-11-12T02:39:27;99650.13;;;7.11;78.99
40918;BME280;26644;50.248;19.032;2022-11-12T02:40:48;99654.31;;;7.14;78.67
40918;BME280;26644;50.248;19.032;2022-11-12T02:42:08;99656.41;;;7.12;78.58
40918;BME280;26644;50.248;19.032;2022-11-12T02:43:29;99654.72;;;7.11;78.90
40918;BME280;26644;50.248;19.032;2022-11-12T02:44:49;99650.78;;;7.07;79.28
40918;BME280;26644;50.248;19.032;2022-11-12T02:46:11;99652.69;;;7.06;78.92
40918;BME280;26644;50.248;19.032;2022-11-12T02:47:31;99657.72;;;7.03;79.08
40918;BME280;26644;50.248;19.032;2022-11-12T02:48:52;99651.88;;;6.99;78.99
40918;BME280;26644;50.248;19.032;2022-11-12T02:50:12;99653.16;;;6.97;78.89
40918;BME280;26644;50.248;19.032;2022-11-12T02:51:34;99653.41;;;6.95;78.99
40918;BME280;26644;50.248;19.032;2022-11-12T02:52:55;99647.94;;;6.95;79.02
40918;BME280;26644;50.248;19.032;2022-11-12T02:54:16;99646.50;;;6.92;79.00
40918;BME280;26644;50.248;19.032;2022-11-12T02:55:37;99653.84;;;6.92;79.02
40918;BME280;26644;50.248;19.032;2022-11-12T02:56:58;99651.34;;;6.90;78.79
40918;BME280;26644;50.248;19.032;2022-11-12T02:58:19;99649.44;;;6.91;78.48
40918;BME280;26644;50.248;19.032;2022-11-12T02:59:41;99654.91;;;6.91;78.30
40918;BME280;26644;50.248;19.032;2022-11-12T03:01:02;99649.44;;;6.91;78.63
40918;BME280;26644;50.248;19.032;2022-11-12T03:02:22;99646.09;;;6.89;78.23
40918;BME280;26644;50.248;19.032;2022-11-12T03:03:43;99652.66;;;6.88;78.08
40918;BME280;26644;50.248;19.032;2022-11-12T03:05:03;99649.53;;;6.84;78.60
40918;BME280;26644;50.248;19.032;2022-11-12T03:06:25;99649.34;;;6.79;78.82
40918;BME280;26644;50.248;19.032;2022-11-12T03:07:46;99655.28;;;6.76;78.62
40918;BME280;26644;50.248;19.032;2022-11-12T03:09:07;99649.19;;;6.74;78.93
40918;BME280;26644;50.248;19.032;2022-11-12T03:10:29;99650.47;;;6.71;79.25
40918;BME280;26644;50.248;19.032;2022-11-12T03:11:49;99658.88;;;6.70;78.86
40918;BME280;26644;50.248;19.032;2022-11-12T03:13:10;99650.53;;;6.65;79.04
40918;BME280;26644;50.248;19.032;2022-11-12T03:14:30;99651.59;;;6.64;79.04
40918;BME280;26644;50.248;19.032;2022-11-12T03:15:58;99659.41;;;6.60;78.74
40918;BME280;26644;50.248;19.032;2022-11-12T03:17:19;99634.13;;;6.46;78.85
40918;BME280;26644;50.248;19.032;2022-11-12T03:18:40;99648.72;;;6.58;78.80
40918;BME280;26644;50.248;19.032;2022-11-12T03:20:01;99646.19;;;6.57;78.49
40918;BME280;26644;50.248;19.032;2022-11-12T03:21:21;99650.59;;;6.58;79.01
40918;BME280;26644;50.248;19.032;2022-11-12T03:22:54;99642.41;;;6.58;78.86
40918;BME280;26644;50.248;19.032;2022-11-12T03:24:16;99647.03;;;6.57;78.46
40918;BME280;26644;50.248;19.032;2022-11-12T03:25:37;99646.00;;;6.58;78.57
40918;BME280;26644;50.248;19.032;2022-11-12T03:26:57;99651.44;;;6.58;78.23
40918;BME280;26644;50.248;19.032;2022-11-12T03:28:19;99649.31;;;6.60;78.47
40918;BME280;26644;50.248;19.032;2022-11-12T03:29:39;99645.75;;;6.60;78.39
40918;BME280;26644;50.248;19.032;2022-11-12T03:31:00;99648.72;;;6.58;78.13
40918;BME280;26644;50.248;19.032;2022-11-12T03:32:21;99653.31;;;6.58;78.46
40918;BME280;26644;50.248;19.032;2022-11-12T03:33:41;99649.78;;;6.57;78.20
40918;BME280;26644;50.248;19.032;2022-11-12T03:35:02;99649.78;;;6.57;78.15
40918;BME280;26644;50.248;19.032;2022-11-12T03:36:24;99644.31;;;6.57;78.31
40918;BME280;26644;50.248;19.032;2022-11-12T03:37:44;99640.72;;;6.57;78.19
40918;BME280;26644;50.248;19.032;2022-11-12T03:39:05;99648.91;;;6.57;78.38
40918;BME280;26644;50.248;19.032;2022-11-12T03:40:28;99644.53;;;6.56;78.66
40918;BME280;26644;50.248;19.032;2022-11-12T03:41:50;99647.03;;;6.57;78.35
40918;BME280;26644;50.248;19.032;2022-11-12T03:43:10;99647.28;;;6.56;78.57
40918;BME280;26644;50.248;19.032;2022-11-12T03:44:33;99643.69;;;6.55;78.05
40918;BME280;26644;50.248;19.032;2022-11-12T03:45:53;99643.69;;;6.55;78.13
40918;BME280;26644;50.248;19.032;2022-11-12T03:47:13;99641.19;;;6.54;78.41
40918;BME280;26644;50.248;19.032;2022-11-12T03:48:33;99641.66;;;6.51;78.42
40918;BME280;26644;50.248;19.032;2022-11-12T03:49:55;99648.63;;;6.47;77.96
40918;BME280;26644;50.248;19.032;2022-11-12T03:51:15;99641.94;;;6.42;78.05
40918;BME280;26644;50.248;19.032;2022-11-12T03:52:37;99645.09;;;6.39;78.66
40918;BME280;26644;50.248;19.032;2022-11-12T03:53:58;99644.50;;;6.37;78.59
40918;BME280;26644;50.248;19.032;2022-11-12T03:55:21;99644.09;;;6.34;78.70
40918;BME280;26644;50.248;19.032;2022-11-12T03:56:44;99638.00;;;6.32;78.61
40918;BME280;26644;50.248;19.032;2022-11-12T03:58:05;99640.97;;;6.30;78.66
40918;BME280;26644;50.248;19.032;2022-11-12T03:59:26;99639.91;;;6.31;79.06
40918;BME280;26644;50.248;19.032;2022-11-12T04:00:47;99636.34;;;6.31;78.86
40918;BME280;26644;50.248;19.032;2022-11-12T04:02:07;99634.44;;;6.31;78.57
40918;BME280;26644;50.248;19.032;2022-11-12T04:03:32;99636.13;;;6.32;78.83
40918;BME280;26644;50.248;19.032;2022-11-12T04:04:53;99628.78;;;6.33;78.68
40918;BME280;26644;50.248;19.032;2022-11-12T04:06:32;99636.72;;;6.34;78.32
40918;BME280;26644;50.248;19.032;2022-11-12T04:08:13;99632.13;;;6.35;78.50
40918;BME280;26644;50.248;19.032;2022-11-12T04:09:53;99636.31;;;6.37;78.13
40918;BME280;26644;50.248;19.032;2022-11-12T04:11:15;99626.84;;;6.40;78.09
40918;BME280;26644;50.248;19.032;2022-11-12T04:12:38;99639.41;;;6.41;77.95
40918;BME280;26644;50.248;19.032;2022-11-12T04:14:17;99629.94;;;6.43;78.06
40918;BME280;26644;50.248;19.032;2022-11-12T04:15:38;99630.56;;;6.45;77.54
40918;BME280;26644;50.248;19.032;2022-11-12T04:16:58;99633.28;;;6.45;77.24
40918;BME280;26644;50.248;19.032;2022-11-12T04:18:34;99630.34;;;6.47;77.91
40918;BME280;26644;50.248;19.032;2022-11-12T04:20:13;99636.03;;;6.45;77.36
40918;BME280;26644;50.248;19.032;2022-11-12T04:21:54;99639.81;;;6.44;76.91
40918;BME280;26644;50.248;19.032;2022-11-12T04:23:16;99638.13;;;6.43;76.96
40918;BME280;26644;50.248;19.032;2022-11-12T04:24:38;99630.78;;;6.44;76.51
40918;BME280;26644;50.248;19.032;2022-11-12T04:26:17;99626.38;;;6.43;77.30
40918;BME280;26644;50.248;19.032;2022-11-12T04:27:45;99625.34;;;6.44;76.98
40918;BME280;26644;50.248;19.032;2022-11-12T04:29:05;99626.78;;;6.47;76.76
40918;BME280;26644;50.248;19.032;2022-11-12T04:30:44;99625.09;;;6.45;76.88
40918;BME280;26644;50.248;19.032;2022-11-12T04:32:05;99622.59;;;6.44;77.00
40918;BME280;26644;50.248;19.032;2022-11-12T04:33:25;99629.72;;;6.45;76.59
40918;BME280;26644;50.248;19.032;2022-11-12T04:34:46;99629.72;;;6.45;76.70
40918;BME280;26644;50.248;19.032;2022-11-12T04:36:07;99633.28;;;6.45;76.42
40918;BME280;26644;50.248;19.032;2022-11-12T04:37:30;99628.88;;;6.44;76.30
40918;BME280;26644;50.248;19.032;2022-11-12T04:39:02;99628.28;;;6.42;75.90
40918;BME280;26644;50.248;19.032;2022-11-12T04:40:24;99626.00;;;6.39;75.62
40918;BME280;26644;50.248;19.032;2022-11-12T04:42:04;99636.50;;;6.36;75.38
40918;BME280;26644;50.248;19.032;2022-11-12T04:43:44;99634.00;;;6.34;75.97
40918;BME280;26644;50.248;19.032;2022-11-12T04:45:23;99633.19;;;6.34;76.41
40918;BME280;26644;50.248;19.032;2022-11-12T04:46:44;99630.44;;;6.34;76.18
40918;BME280;26644;50.248;19.032;2022-11-12T04:48:05;99636.97;;;6.33;76.08
40918;BME280;26644;50.248;19.032;2022-11-12T04:49:26;99632.34;;;6.33;76.13
40918;BME280;26644;50.248;19.032;2022-11-12T04:50:48;99625.22;;;6.32;76.22
40918;BME280;26644;50.248;19.032;2022-11-12T04:52:12;99618.50;;;6.35;76.35
40918;BME280;26644;50.248;19.032;2022-11-12T04:53:32;99630.22;;;6.35;76.41
40918;BME280;26644;50.248;19.032;2022-11-12T04:54:54;99626.44;;;6.36;76.30
40918;BME280;26644;50.248;19.032;2022-11-12T04:56:14;99623.50;;;6.38;76.06
40918;BME280;26644;50.248;19.032;2022-11-12T04:57:36;99614.09;;;6.34;75.28
40918;BME280;26644;50.248;19.032;2022-11-12T04:58:58;99619.31;;;6.35;75.81
40918;BME280;26644;50.248;19.032;2022-11-12T05:00:19;99626.91;;;6.33;75.48
40918;BME280;26644;50.248;19.032;2022-11-12T05:01:40;99635.28;;;6.32;75.38
40918;BME280;26644;50.248;19.032;2022-11-12T05:03:00;99630.28;;;6.28;74.83
40918;BME280;26644;50.248;19.032;2022-11-12T05:04:22;99633.88;;;6.22;75.01
40918;BME280;26644;50.248;19.032;2022-11-12T05:05:46;99622.38;;;6.20;75.75
40918;BME280;26644;50.248;19.032;2022-11-12T05:07:07;99626.97;;;6.20;75.16
40918;BME280;26644;50.248;19.032;2022-11-12T05:08:27;99616.13;;;6.13;74.75
40918;BME280;26644;50.248;19.032;2022-11-12T05:09:49;99619.69;;;6.14;75.78
40918;BME280;26644;50.248;19.032;2022-11-12T05:11:08;99621.56;;;6.13;75.64
40918;BME280;26644;50.248;19.032;2022-11-12T05:12:29;99620.75;;;6.13;75.55
40918;BME280;26644;50.248;19.032;2022-11-12T05:13:50;99628.09;;;6.12;76.00
40918;BME280;26644;50.248;19.032;2022-11-12T05:15:12;99622.66;;;6.12;75.91
40918;BME280;26644;50.248;19.032;2022-11-12T05:16:33;99621.78;;;6.11;76.17
40918;BME280;26644;50.248;19.032;2022-11-12T05:17:52;99620.13;;;6.10;76.21
40918;BME280;26644;50.248;19.032;2022-11-12T05:19:13;99615.75;;;6.09;76.03
40918;BME280;26644;50.248;19.032;2022-11-12T05:20:34;99618.66;;;6.08;75.81
40918;BME280;26644;50.248;19.032;2022-11-12T05:21:55;99619.75;;;6.07;75.57
40918;BME280;26644;50.248;19.032;2022-11-12T05:23:24;99621.03;;;6.04;75.45
40918;BME280;26644;50.248;19.032;2022-11-12T05:24:45;99614.13;;;6.02;75.68
40918;BME280;26644;50.248;19.032;2022-11-12T05:26:06;99620.84;;;5.99;74.99
40918;BME280;26644;50.248;19.032;2022-11-12T05:27:26;99621.72;;;5.93;75.00
40918;BME280;26644;50.248;19.032;2022-11-12T05:28:47;99626.75;;;5.89;75.10
40918;BME280;26644;50.248;19.032;2022-11-12T05:30:08;99629.13;;;5.86;75.81
40918;BME280;26644;50.248;19.032;2022-11-12T05:31:32;99621.19;;;5.77;74.98
40918;BME280;26644;50.248;19.032;2022-11-12T05:32:52;99628.31;;;5.78;75.26
40918;BME280;26644;50.248;19.032;2022-11-12T05:34:13;99628.53;;;5.77;75.54
40918;BME280;26644;50.248;19.032;2022-11-12T05:35:33;99625.38;;;5.73;75.27
40918;BME280;26644;50.248;19.032;2022-11-12T05:36:54;99617.44;;;5.72;76.33
40918;BME280;26644;50.248;19.032;2022-11-12T05:38:14;99627.53;;;5.71;76.36
40918;BME280;26644;50.248;19.032;2022-11-12T05:39:36;99620.63;;;5.69;75.84
40918;BME280;26644;50.248;19.032;2022-11-12T05:40:56;99629.63;;;5.69;76.54
40918;BME280;26644;50.248;19.032;2022-11-12T05:42:17;99602.88;;;5.53;76.94
40918;BME280;26644;50.248;19.032;2022-11-12T05:43:37;99638.19;;;5.73;76.28
40918;BME280;26644;50.248;19.032;2022-11-12T05:44:57;99627.94;;;5.75;76.98
40918;BME280;26644;50.248;19.032;2022-11-12T05:46:18;99632.28;;;5.76;76.24
40918;BME280;26644;50.248;19.032;2022-11-12T05:47:41;99644.88;;;5.77;76.53
40918;BME280;26644;50.248;19.032;2022-11-12T05:49:02;99635.66;;;5.78;76.50
40918;BME280;26644;50.248;19.032;2022-11-12T05:50:21;99636.25;;;5.80;76.63
40918;BME280;26644;50.248;19.032;2022-11-12T05:51:42;99644.44;;;5.80;76.32
40918;BME280;26644;50.248;19.032;2022-11-12T05:53:03;99639.84;;;5.81;76.19
40918;BME280;26644;50.248;19.032;2022-11-12T05:54:24;99633.75;;;5.78;76.23
40918;BME280;26644;50.248;19.032;2022-11-12T05:55:45;99648.63;;;5.83;76.50
40918;BME280;26644;50.248;19.032;2022-11-12T05:57:05;99645.88;;;5.83;76.69
40918;BME280;26644;50.248;19.032;2022-11-12T05:58:26;99648.41;;;5.84;76.16
40918;BME280;26644;50.248;19.032;2022-11-12T05:59:47;99644.00;;;5.83;76.04
40918;BME280;26644;50.248;19.032;2022-11-12T06:01:07;99649.69;;;5.82;75.86
40918;BME280;26644;50.248;19.032;2022-11-12T06:02:27;99645.50;;;5.79;76.03
40918;BME280;26644;50.248;19.032;2022-11-12T06:03:50;99643.00;;;5.77;76.22
40918;BME280;26644;50.248;19.032;2022-11-12T06:05:10;99644.06;;;5.76;75.95
40918;BME280;26644;50.248;19.032;2022-11-12T06:06:31;99648.88;;;5.74;76.35
40918;BME280;26644;50.248;19.032;2022-11-12T06:07:51;99643.66;;;5.73;75.97
40918;BME280;26644;50.248;19.032;2022-11-12T06:09:12;99648.88;;;5.74;75.96
40918;BME280;26644;50.248;19.032;2022-11-12T06:10:33;99654.09;;;5.76;76.44
40918;BME280;26644;50.248;19.032;2022-11-12T06:11:53;99656.00;;;5.75;76.63
40918;BME280;26644;50.248;19.032;2022-11-12T06:13:14;99651.81;;;5.73;76.15
40918;BME280;26644;50.248;19.032;2022-11-12T06:14:35;99667.53;;;5.77;76.83
40918;BME280;26644;50.248;19.032;2022-11-12T06:15:56;99649.53;;;5.70;76.14
40918;BME280;26644;50.248;19.032;2022-11-12T06:17:16;99667.53;;;5.77;75.39
40918;BME280;26644;50.248;19.032;2022-11-12T06:18:37;99667.72;;;5.76;75.43
40918;BME280;26644;50.248;19.032;2022-11-12T06:19:59;99660.81;;;5.73;75.03
40918;BME280;26644;50.248;19.032;2022-11-12T06:21:21;99672.16;;;5.70;75.38
40918;BME280;26644;50.248;19.032;2022-11-12T06:22:41;99671.56;;;5.68;75.16
40918;BME280;26644;50.248;19.032;2022-11-12T06:24:02;99666.94;;;5.69;74.98
40918;BME280;26644;50.248;19.032;2022-11-12T06:25:24;99664.66;;;5.66;75.17
40918;BME280;26644;50.248;19.032;2022-11-12T06:26:44;99667.78;;;5.63;74.71
40918;BME280;26644;50.248;19.032;2022-11-12T06:28:05;99673.25;;;5.63;75.13
40918;BME280;26644;50.248;19.032;2022-11-12T06:29:24;99675.59;;;5.59;74.54
40918;BME280;26644;50.248;19.032;2022-11-12T06:30:46;99671.41;;;5.56;74.54
40918;BME280;26644;50.248;19.032;2022-11-12T06:32:05;99671.81;;;5.53;75.07
40918;BME280;26644;50.248;19.032;2022-11-12T06:33:26;99667.81;;;5.56;74.96
40918;BME280;26644;50.248;19.032;2022-11-12T06:34:46;99663.84;;;5.58;75.85
40918;BME280;26644;50.248;19.032;2022-11-12T06:36:11;99670.53;;;5.63;75.81
40918;BME280;26644;50.248;19.032;2022-11-12T06:37:33;99671.16;;;5.65;75.94
40918;BME280;26644;50.248;19.032;2022-11-12T06:38:53;99669.44;;;5.70;75.97
40918;BME280;26644;50.248;19.032;2022-11-12T06:40:14;99669.84;;;5.74;75.66
40918;BME280;26644;50.248;19.032;2022-11-12T06:41:35;99671.31;;;5.76;75.49
40918;BME280;26644;50.248;19.032;2022-11-12T06:42:56;99668.13;;;5.80;75.55
40918;BME280;26644;50.248;19.032;2022-11-12T06:44:16;99668.53;;;5.83;75.66
40918;BME280;26644;50.248;19.032;2022-11-12T06:45:37;99672.28;;;5.89;76.19
40918;BME280;26644;50.248;19.032;2022-11-12T06:46:58;99676.00;;;5.94;76.02
40918;BME280;26644;50.248;19.032;2022-11-12T06:48:19;99678.94;;;6.00;76.45
40918;BME280;26644;50.248;19.032;2022-11-12T06:49:39;99670.09;;;6.04;76.19
40918;BME280;26644;50.248;19.032;2022-11-12T06:51:15;99682.00;;;6.10;76.41
40918;BME280;26644;50.248;19.032;2022-11-12T06:52:38;99677.56;;;6.16;76.83
40918;BME280;26644;50.248;19.032;2022-11-12T06:53:59;99675.66;;;6.23;76.31
40918;BME280;26644;50.248;19.032;2022-11-12T06:55:20;99682.72;;;6.31;76.03
40918;BME280;26644;50.248;19.032;2022-11-12T06:56:41;99682.06;;;6.35;76.33
40918;BME280;26644;50.248;19.032;2022-11-12T06:58:02;99687.47;;;6.42;76.32
40918;BME280;26644;50.248;19.032;2022-11-12T06:59:22;99692.03;;;6.48;76.01
40918;BME280;26644;50.248;19.032;2022-11-12T07:00:42;99693.84;;;6.54;75.94
40918;BME280;26644;50.248;19.032;2022-11-12T07:02:02;99697.38;;;6.61;76.16
40918;BME280;26644;50.248;19.032;2022-11-12T07:03:24;99695.44;;;6.69;75.63
40918;BME280;26644;50.248;19.032;2022-11-12T07:04:44;99689.09;;;6.75;75.35
40918;BME280;26644;50.248;19.032;2022-11-12T07:06:07;99695.31;;;6.82;75.79
40918;BME280;26644;50.248;19.032;2022-11-12T07:07:29;99699.88;;;6.88;75.66
40918;BME280;26644;50.248;19.032;2022-11-12T07:08:51;99702.53;;;6.95;74.93
40918;BME280;26644;50.248;19.032;2022-11-12T07:10:12;99705.66;;;6.99;74.60
40918;BME280;26644;50.248;19.032;2022-11-12T07:11:32;99706.66;;;7.04;74.80
40918;BME280;26644;50.248;19.032;2022-11-12T07:12:53;99706.63;;;7.11;74.75
40918;BME280;26644;50.248;19.032;2022-11-12T07:14:14;99708.69;;;7.16;74.47
40918;BME280;26644;50.248;19.032;2022-11-12T07:15:35;99697.94;;;7.21;74.15